DLH161 EDDF-LPPT
Flight info
| Callsign | DLH161 |
|---|---|
| Flight time | N/A |
| Altitude | 40000 |
| Route | SOBRA8E SOBRA Y180 DIK UN857 TOLVU/N0487F410 DCT RAPOR DCT GIMER/N0484F350 DCT ESTOC UT300 PON UN872 GODIX/N0487F310 UN872 DIDAK/N0491F410 UN872 TERPO/N0488F350 UN872 ERIGA UZ218 FUJTI/N0493F410 DCT ATLEN DCT ABUPI DCT XAMAX |
| Aircraft | A359/H-SDE2E3GHIJ3J4J5LM1ORWXY/LB1D1 |
Departure
| Time | 2026-05-05 08:05 |
|---|---|
| Airport | Frankfurt Main Airport (EDDF) |
Arrival
| Time | N/A |
|---|---|
| Airport | Lisbon Humberto Delgado Airport (LPPT) |
| Time | Latitude | Longitude | Altitude | Speed | Heading |
|---|---|---|---|---|---|
| 2026-05-05 06:40 | 50.04799 | 8.56927 | 368 ft | 0 kts | 295° |
| 2026-05-05 06:40 | 50.04801 | 8.56921 | 368 ft | 0 kts | 294° |
| 2026-05-05 06:52 | 50.04799 | 8.56927 | 363 ft | 0 kts | 295° |
| 2026-05-05 06:53 | 50.04801 | 8.56921 | 362 ft | 0 kts | 294° |
| 2026-05-05 07:50 | 50.04797 | 8.56932 | 362 ft | 4 kts | 293° |
| 2026-05-05 07:51 | 50.04787 | 8.56969 | 368 ft | 2 kts | 295° |
| 2026-05-05 07:51 | 50.04780 | 8.57000 | 363 ft | 4 kts | 265° |
| 2026-05-05 07:51 | 50.04784 | 8.57022 | 364 ft | 4 kts | 223° |
| 2026-05-05 07:51 | 50.04797 | 8.57037 | 364 ft | 0 kts | 204° |
| 2026-05-05 07:52 | 50.04782 | 8.57026 | 362 ft | 0 kts | 205° |
| 2026-05-05 07:57 | 50.04779 | 8.57024 | 368 ft | 3 kts | 205° |
| 2026-05-05 07:57 | 50.04737 | 8.56993 | 368 ft | 10 kts | 205° |
| 2026-05-05 07:57 | 50.04663 | 8.56940 | 371 ft | 13 kts | 205° |
| 2026-05-05 07:58 | 50.04572 | 8.56895 | 366 ft | 14 kts | 191° |
| 2026-05-05 07:58 | 50.04479 | 8.56857 | 373 ft | 15 kts | 209° |
| 2026-05-05 07:58 | 50.04424 | 8.56713 | 368 ft | 18 kts | 250° |
| 2026-05-05 07:58 | 50.04378 | 8.56519 | 369 ft | 21 kts | 250° |
| 2026-05-05 07:59 | 50.04326 | 8.56296 | 368 ft | 23 kts | 250° |
| 2026-05-05 07:59 | 50.04283 | 8.56123 | 367 ft | 13 kts | 249° |
| 2026-05-05 07:59 | 50.04247 | 8.55971 | 369 ft | 17 kts | 249° |
| 2026-05-05 07:59 | 50.04202 | 8.55786 | 363 ft | 20 kts | 250° |
| 2026-05-05 08:00 | 50.04151 | 8.55570 | 366 ft | 23 kts | 250° |
| 2026-05-05 08:00 | 50.04094 | 8.55331 | 367 ft | 24 kts | 249° |
| 2026-05-05 08:00 | 50.04051 | 8.55153 | 365 ft | 15 kts | 249° |
| 2026-05-05 08:00 | 50.04011 | 8.54987 | 366 ft | 18 kts | 250° |
| 2026-05-05 08:01 | 50.03964 | 8.54788 | 364 ft | 22 kts | 250° |
| 2026-05-05 08:01 | 50.03908 | 8.54553 | 362 ft | 25 kts | 250° |
| 2026-05-05 08:01 | 50.03865 | 8.54385 | 362 ft | 13 kts | 241° |
| 2026-05-05 08:01 | 50.03808 | 8.54250 | 361 ft | 16 kts | 242° |
| 2026-05-05 08:02 | 50.03763 | 8.54070 | 360 ft | 19 kts | 250° |
| 2026-05-05 08:02 | 50.03717 | 8.53878 | 360 ft | 18 kts | 249° |
| 2026-05-05 08:02 | 50.03672 | 8.53687 | 358 ft | 18 kts | 249° |
| 2026-05-05 08:02 | 50.03624 | 8.53493 | 354 ft | 17 kts | 248° |
| 2026-05-05 08:03 | 50.03584 | 8.53337 | 357 ft | 17 kts | 249° |
| 2026-05-05 08:03 | 50.03543 | 8.53164 | 353 ft | 15 kts | 250° |
| 2026-05-05 08:03 | 50.03503 | 8.52996 | 352 ft | 18 kts | 250° |
| 2026-05-05 08:03 | 50.03455 | 8.52806 | 350 ft | 16 kts | 246° |
| 2026-05-05 08:04 | 50.03415 | 8.52657 | 348 ft | 7 kts | 248° |
| 2026-05-05 08:04 | 50.03385 | 8.52603 | 350 ft | 7 kts | 204° |
| 2026-05-05 08:04 | 50.03325 | 8.52593 | 347 ft | 10 kts | 182° |
| 2026-05-05 08:04 | 50.03213 | 8.52594 | 347 ft | 32 kts | 179° |
| 2026-05-05 08:05 | 50.02718 | 8.52600 | 351 ft | 108 kts | 179° |
| 2026-05-05 08:05 | 50.01747 | 8.52613 | 344 ft | 170 kts | 180° |
| 2026-05-05 08:05 | 50.00463 | 8.52650 | 772 ft | 189 kts | 178° |
| 2026-05-05 08:05 | 49.99194 | 8.52766 | 1811 ft | 183 kts | 175° |
| 2026-05-05 08:06 | 49.97886 | 8.52849 | 2419 ft | 193 kts | 179° |
| 2026-05-05 08:06 | 49.96472 | 8.52777 | 2850 ft | 214 kts | 184° |
| 2026-05-05 08:06 | 49.94961 | 8.52742 | 3477 ft | 223 kts | 176° |
| 2026-05-05 08:06 | 49.93408 | 8.52913 | 4286 ft | 224 kts | 176° |
| 2026-05-05 08:07 | 49.91851 | 8.53080 | 5083 ft | 225 kts | 177° |
| 2026-05-05 08:07 | 49.90285 | 8.53223 | 5925 ft | 225 kts | 178° |
| 2026-05-05 08:07 | 49.88714 | 8.53347 | 6719 ft | 227 kts | 178° |
| 2026-05-05 08:07 | 49.87128 | 8.53227 | 7432 ft | 231 kts | 192° |
| 2026-05-05 08:08 | 49.85526 | 8.52501 | 7883 ft | 251 kts | 199° |
| 2026-05-05 08:08 | 49.83832 | 8.51535 | 8404 ft | 266 kts | 201° |
| 2026-05-05 08:08 | 49.82077 | 8.50519 | 9172 ft | 272 kts | 201° |
| 2026-05-05 08:08 | 49.80281 | 8.49490 | 9984 ft | 278 kts | 201° |
| 2026-05-05 08:09 | 49.78465 | 8.48235 | 10476 ft | 296 kts | 211° |
| 2026-05-05 08:09 | 49.76878 | 8.46078 | 10860 ft | 316 kts | 232° |
| 2026-05-05 08:09 | 49.75899 | 8.42939 | 11218 ft | 336 kts | 256° |
| 2026-05-05 08:09 | 49.75850 | 8.39284 | 11789 ft | 349 kts | 279° |
| 2026-05-05 08:10 | 49.76674 | 8.35726 | 12519 ft | 355 kts | 290° |
| 2026-05-05 08:10 | 49.77430 | 8.32066 | 13272 ft | 358 kts | 283° |
| 2026-05-05 08:10 | 49.78063 | 8.28307 | 13995 ft | 362 kts | 282° |
| 2026-05-05 08:10 | 49.78679 | 8.24507 | 14619 ft | 367 kts | 282° |
| 2026-05-05 08:11 | 49.79307 | 8.20644 | 15236 ft | 372 kts | 282° |
| 2026-05-05 08:11 | 49.79934 | 8.16731 | 15875 ft | 377 kts | 281° |
| 2026-05-05 08:11 | 49.80384 | 8.13904 | 16335 ft | 380 kts | 281° |
| 2026-05-05 08:11 | 49.81029 | 8.09841 | 16988 ft | 384 kts | 281° |
| 2026-05-05 08:12 | 49.81668 | 8.05808 | 17642 ft | 388 kts | 281° |
| 2026-05-05 08:12 | 49.82316 | 8.01722 | 18260 ft | 393 kts | 281° |
| 2026-05-05 08:12 | 49.82971 | 7.97597 | 18842 ft | 396 kts | 281° |
| 2026-05-05 08:12 | 49.83623 | 7.93441 | 19461 ft | 399 kts | 281° |
| 2026-05-05 08:13 | 49.84278 | 7.89252 | 20078 ft | 402 kts | 281° |
| 2026-05-05 08:13 | 49.84930 | 7.85083 | 20714 ft | 405 kts | 281° |
| 2026-05-05 08:13 | 49.85593 | 7.80828 | 21361 ft | 408 kts | 281° |
| 2026-05-05 08:13 | 49.86262 | 7.76533 | 21997 ft | 411 kts | 281° |
| 2026-05-05 08:14 | 49.86946 | 7.72208 | 22652 ft | 415 kts | 282° |
| 2026-05-05 08:14 | 49.87640 | 7.67833 | 23234 ft | 420 kts | 282° |
| 2026-05-05 08:14 | 49.88328 | 7.63423 | 23784 ft | 423 kts | 281° |
| 2026-05-05 08:14 | 49.89015 | 7.58963 | 24362 ft | 425 kts | 281° |
| 2026-05-05 08:15 | 49.89701 | 7.54485 | 24951 ft | 428 kts | 281° |
| 2026-05-05 08:15 | 49.90386 | 7.49991 | 25528 ft | 430 kts | 281° |
| 2026-05-05 08:15 | 49.91085 | 7.45404 | 26105 ft | 433 kts | 280° |
| 2026-05-05 08:15 | 49.91770 | 7.40900 | 26655 ft | 435 kts | 280° |
| 2026-05-05 08:16 | 49.92467 | 7.36319 | 27215 ft | 438 kts | 280° |
| 2026-05-05 08:16 | 49.93167 | 7.31702 | 27770 ft | 441 kts | 280° |
| 2026-05-05 08:16 | 49.93870 | 7.27055 | 28336 ft | 443 kts | 280° |
| 2026-05-05 08:16 | 49.94575 | 7.22386 | 28888 ft | 445 kts | 279° |
| 2026-05-05 08:17 | 49.95284 | 7.17679 | 29427 ft | 448 kts | 279° |
| 2026-05-05 08:17 | 49.95991 | 7.12967 | 29935 ft | 450 kts | 279° |
| 2026-05-05 08:17 | 49.96704 | 7.08207 | 30352 ft | 453 kts | 279° |
| 2026-05-05 08:17 | 49.97414 | 7.03438 | 30763 ft | 455 kts | 279° |
| 2026-05-05 08:18 | 49.98128 | 6.98641 | 31168 ft | 456 kts | 279° |
| 2026-05-05 08:18 | 49.98802 | 6.93815 | 31539 ft | 456 kts | 276° |
| 2026-05-05 08:18 | 49.99135 | 6.88946 | 32033 ft | 451 kts | 268° |
| 2026-05-05 08:18 | 49.99142 | 6.84076 | 32418 ft | 451 kts | 265° |
| 2026-05-05 08:19 | 49.99055 | 6.79186 | 32658 ft | 455 kts | 263° |
| 2026-05-05 08:19 | 49.98916 | 6.74271 | 33022 ft | 456 kts | 263° |
| 2026-05-05 08:19 | 49.98756 | 6.69357 | 33506 ft | 454 kts | 262° |
| 2026-05-05 08:19 | 49.98594 | 6.64480 | 34057 ft | 450 kts | 262° |
| 2026-05-05 08:20 | 49.98317 | 6.59656 | 34402 ft | 447 kts | 257° |
| 2026-05-05 08:20 | 49.97686 | 6.54946 | 34640 ft | 445 kts | 250° |
| 2026-05-05 08:20 | 49.96688 | 6.50409 | 34904 ft | 444 kts | 246° |
| 2026-05-05 08:20 | 49.95534 | 6.45962 | 35172 ft | 444 kts | 244° |
| 2026-05-05 08:21 | 49.94311 | 6.41549 | 35443 ft | 445 kts | 243° |
| 2026-05-05 08:21 | 49.93055 | 6.37149 | 35707 ft | 446 kts | 243° |
| 2026-05-05 08:21 | 49.91786 | 6.32737 | 35962 ft | 448 kts | 243° |
| 2026-05-05 08:21 | 49.90517 | 6.28320 | 36214 ft | 450 kts | 243° |
| 2026-05-05 08:22 | 49.89236 | 6.23889 | 36438 ft | 450 kts | 242° |
| 2026-05-05 08:22 | 49.87937 | 6.19452 | 36687 ft | 452 kts | 243° |
| 2026-05-05 08:22 | 49.86620 | 6.15034 | 36931 ft | 452 kts | 240° |
| 2026-05-05 08:22 | 49.85039 | 6.10838 | 37167 ft | 451 kts | 234° |
| 2026-05-05 08:23 | 49.83297 | 6.06788 | 37401 ft | 452 kts | 233° |
| 2026-05-05 08:23 | 49.81505 | 6.02788 | 37626 ft | 452 kts | 233° |
| 2026-05-05 08:23 | 49.79683 | 5.98810 | 37806 ft | 454 kts | 232° |
| 2026-05-05 08:23 | 49.77838 | 5.94828 | 38008 ft | 455 kts | 232° |
| 2026-05-05 08:24 | 49.75997 | 5.90830 | 38244 ft | 456 kts | 234° |
| 2026-05-05 08:24 | 49.74371 | 5.86615 | 38466 ft | 459 kts | 241° |
| 2026-05-05 08:24 | 49.71897 | 5.77409 | 38684 ft | 466 kts | 247° |
| 2026-05-05 08:25 | 49.70791 | 5.72709 | 38876 ft | 466 kts | 248° |
| 2026-05-05 08:25 | 49.69710 | 5.67997 | 39058 ft | 466 kts | 248° |
| 2026-05-05 08:25 | 49.68632 | 5.63277 | 39236 ft | 466 kts | 248° |
| 2026-05-05 08:25 | 49.67563 | 5.58618 | 39393 ft | 466 kts | 248° |
| 2026-05-05 08:26 | 49.66458 | 5.53845 | 39561 ft | 466 kts | 248° |
| 2026-05-05 08:26 | 49.65373 | 5.49194 | 39710 ft | 467 kts | 248° |
| 2026-05-05 08:26 | 49.64252 | 5.44423 | 39842 ft | 468 kts | 248° |
| 2026-05-05 08:26 | 49.63140 | 5.39708 | 39886 ft | 468 kts | 248° |
| 2026-05-05 08:27 | 49.60986 | 5.30314 | 39872 ft | 469 kts | 250° |
| 2026-05-05 08:27 | 49.58968 | 5.20753 | 39874 ft | 469 kts | 250° |
| 2026-05-05 08:28 | 49.57168 | 5.11072 | 39876 ft | 470 kts | 253° |
| 2026-05-05 08:28 | 49.55531 | 5.01293 | 39879 ft | 470 kts | 253° |
| 2026-05-05 08:29 | 49.53855 | 4.91564 | 39883 ft | 470 kts | 252° |
| 2026-05-05 08:30 | 49.51249 | 4.76998 | 39885 ft | 470 kts | 252° |
| 2026-05-05 08:30 | 49.49491 | 4.67310 | 39882 ft | 470 kts | 252° |
| 2026-05-05 08:31 | 49.47725 | 4.57617 | 39885 ft | 470 kts | 252° |
| 2026-05-05 08:31 | 49.45953 | 4.47934 | 39885 ft | 470 kts | 252° |
| 2026-05-05 08:32 | 49.44185 | 4.38317 | 39871 ft | 471 kts | 252° |
| 2026-05-05 08:32 | 49.42393 | 4.28626 | 39874 ft | 472 kts | 252° |
| 2026-05-05 08:33 | 49.40590 | 4.18923 | 39873 ft | 473 kts | 252° |
| 2026-05-05 08:33 | 49.38780 | 4.09231 | 39873 ft | 473 kts | 252° |
| 2026-05-05 08:34 | 49.36959 | 3.99533 | 39873 ft | 473 kts | 252° |
| 2026-05-05 08:34 | 49.35285 | 3.89784 | 39874 ft | 474 kts | 255° |
| 2026-05-05 08:35 | 49.33944 | 3.79886 | 39874 ft | 474 kts | 256° |
| 2026-05-05 08:35 | 49.32608 | 3.69986 | 39876 ft | 474 kts | 256° |
| 2026-05-05 08:36 | 49.31448 | 3.61786 | 39876 ft | 474 kts | 255° |
| 2026-05-05 08:36 | 49.30016 | 3.51928 | 39882 ft | 474 kts | 255° |
| 2026-05-05 08:37 | 49.28564 | 3.42064 | 39870 ft | 475 kts | 255° |
| 2026-05-05 08:37 | 49.27107 | 3.32207 | 39873 ft | 475 kts | 255° |
| 2026-05-05 08:38 | 49.25643 | 3.22344 | 39871 ft | 475 kts | 255° |
| 2026-05-05 08:38 | 49.24171 | 3.12496 | 39876 ft | 475 kts | 255° |
| 2026-05-05 08:39 | 49.22687 | 3.02632 | 39875 ft | 476 kts | 255° |
| 2026-05-05 08:39 | 49.21196 | 2.92777 | 39873 ft | 476 kts | 255° |
| 2026-05-05 08:40 | 49.19694 | 2.82913 | 39873 ft | 476 kts | 255° |
| 2026-05-05 08:40 | 49.18184 | 2.73057 | 39879 ft | 476 kts | 255° |
| 2026-05-05 08:41 | 49.16665 | 2.63206 | 39890 ft | 476 kts | 255° |
| 2026-05-05 08:41 | 49.15136 | 2.53349 | 39883 ft | 477 kts | 254° |
| 2026-05-05 08:42 | 49.13608 | 2.43558 | 39883 ft | 477 kts | 254° |
| 2026-05-05 08:42 | 49.12423 | 2.33564 | 39883 ft | 479 kts | 259° |
| 2026-05-05 08:43 | 49.11464 | 2.23502 | 39883 ft | 479 kts | 259° |
| 2026-05-05 08:43 | 49.10542 | 2.13531 | 39883 ft | 480 kts | 267° |
| 2026-05-05 08:44 | 49.09994 | 2.03490 | 39709 ft | 470 kts | 270° |
| 2026-05-05 08:44 | 49.09367 | 1.98670 | 39831 ft | 458 kts | 265° |
| 2026-05-05 08:44 | 49.08455 | 1.94062 | 39881 ft | 448 kts | 260° |
| 2026-05-05 08:45 | 49.06106 | 1.85484 | 39862 ft | 432 kts | 257° |
| 2026-05-05 08:45 | 49.03586 | 1.77387 | 39857 ft | 414 kts | 257° |
| 2026-05-05 08:46 | 49.01205 | 1.69709 | 39852 ft | 391 kts | 261° |
| 2026-05-05 08:46 | 49.00110 | 1.66005 | 39932 ft | 373 kts | 271° |
| 2026-05-05 08:46 | 48.99886 | 1.62468 | 39317 ft | 258 kts | 233° |
| 2026-05-05 08:46 | 49.00007 | 1.60545 | 34005 ft | 146 kts | 336° |
| 2026-05-05 08:47 | 49.00263 | 1.59690 | 26639 ft | 33 kts | 199° |
| 2026-05-05 08:47 | 49.00388 | 1.59266 | 19910 ft | 71 kts | 20° |
| 2026-05-05 08:47 | 49.00611 | 1.59051 | 13886 ft | 6 kts | 246° |
| 2026-05-05 08:47 | 49.00711 | 1.58812 | 8272 ft | 32 kts | 119° |